createdAt,value
2018-09-02T00:00:37.428Z,5.92
2018-09-02T00:05:41.529Z,5.15
2018-09-02T00:10:45.829Z,4.95
2018-09-02T00:15:49.957Z,5.45
2018-09-02T00:20:54.040Z,5.05
2018-09-02T00:25:58.270Z,5.78
2018-09-02T00:31:02.433Z,5.53
2018-09-02T00:36:06.493Z,5.50
2018-09-02T00:41:14.637Z,4.70
2018-09-02T00:46:18.973Z,4.72
2018-09-02T00:51:23.050Z,4.90
2018-09-02T00:56:28.102Z,4.58
2018-09-02T01:01:32.507Z,4.65
2018-09-02T01:06:36.664Z,4.62
2018-09-02T01:11:40.728Z,5.08
2018-09-02T01:16:44.934Z,5.17
2018-09-02T01:21:48.974Z,5.40
2018-09-02T01:26:53.063Z,6.58
2018-09-02T01:31:57.174Z,6.42
2018-09-02T01:37:02.185Z,6.33
2018-09-02T01:42:06.645Z,7.05
2018-09-02T01:47:10.798Z,6.92
2018-09-02T01:52:14.936Z,7.10
2018-09-02T01:57:19.052Z,6.33
2018-09-02T02:02:23.235Z,6.28
2018-09-02T02:07:27.304Z,6.78
2018-09-02T02:12:31.478Z,6.85
2018-09-02T02:17:35.719Z,6.50
2018-09-02T02:22:39.941Z,6.97
2018-09-02T02:32:54.213Z,6.28
2018-09-02T02:37:58.279Z,6.47
2018-09-02T02:43:02.396Z,6.50
2018-09-02T02:48:06.534Z,6.70
2018-09-02T02:53:10.561Z,6.37
2018-09-02T02:58:14.726Z,5.85
2018-09-02T03:03:18.874Z,5.75
2018-09-02T03:08:22.945Z,5.72
2018-09-02T03:13:27.132Z,6.47
2018-09-02T03:18:32.165Z,5.92
2018-09-02T03:23:36.334Z,6.05
2018-09-02T03:28:40.509Z,6.30
2018-09-02T03:33:44.571Z,7.17
2018-09-02T03:38:48.651Z,6.05
2018-09-02T03:43:52.747Z,6.47
2018-09-02T03:48:57.007Z,6.87
2018-09-02T03:54:01.251Z,6.30
2018-09-02T03:59:05.412Z,6.33
2018-09-02T04:04:10.025Z,6.60
2018-09-02T04:09:14.906Z,6.37
2018-09-02T04:14:19.760Z,6.62
2018-09-02T04:19:23.937Z,6.40
2018-09-02T04:24:28.069Z,6.97
2018-09-02T04:29:32.181Z,5.92
2018-09-02T04:34:36.426Z,6.58
2018-09-02T04:39:40.563Z,6.53
2018-09-02T04:44:44.719Z,6.87
2018-09-02T04:49:48.863Z,6.30
2018-09-02T04:54:53.046Z,6.03
2018-09-02T04:59:57.319Z,7.00
2018-09-02T05:05:01.520Z,7.03
2018-09-02T05:10:06.447Z,6.45
2018-09-02T05:15:10.585Z,6.87
2018-09-02T05:20:14.631Z,6.28
2018-09-02T05:25:18.727Z,6.00
2018-09-02T05:30:23.910Z,5.53
2018-09-02T05:35:28.273Z,6.33
2018-09-02T05:40:32.491Z,5.75
2018-09-02T05:45:37.111Z,6.17
2018-09-02T05:50:41.858Z,5.42
2018-09-02T05:55:45.963Z,6.03
2018-09-02T06:00:51.022Z,6.30
2018-09-02T06:05:56.165Z,5.80
2018-09-02T06:11:00.280Z,6.17
2018-09-02T06:16:05.043Z,6.87
2018-09-02T06:21:09.199Z,7.28
2018-09-02T06:26:14.061Z,7.00
2018-09-02T06:31:18.132Z,6.55
2018-09-02T06:36:22.186Z,6.75
2018-09-02T06:41:26.316Z,6.53
2018-09-02T06:46:30.448Z,6.85
2018-09-02T06:51:34.637Z,6.92
2018-09-02T06:56:39.264Z,6.08
2018-09-02T07:01:43.358Z,6.83
2018-09-02T07:06:47.625Z,8.85
2018-09-02T07:11:51.710Z,6.55
2018-09-02T07:16:55.935Z,6.92
2018-09-02T07:22:01.040Z,6.87
2018-09-02T07:27:05.203Z,6.95
2018-09-02T07:32:09.282Z,6.45
2018-09-02T07:37:14.001Z,6.60
2018-09-02T07:42:18.168Z,6.28
2018-09-02T07:47:22.335Z,5.80
2018-09-02T07:52:26.468Z,6.45
2018-09-02T07:57:30.595Z,6.40
2018-09-02T08:02:34.758Z,6.33
2018-09-02T08:07:39.342Z,6.03
2018-09-02T08:12:44.279Z,5.22
2018-09-02T08:17:48.294Z,5.40
2018-09-02T08:22:52.498Z,5.55
2018-09-02T08:27:56.731Z,4.37
2018-09-02T08:33:00.851Z,3.92
2018-09-02T08:38:05.749Z,3.90
2018-09-02T08:43:09.915Z,3.47
2018-09-02T08:48:14.144Z,5.17
2018-09-02T08:53:18.237Z,2.90
2018-09-02T08:58:22.438Z,2.98
2018-09-02T09:03:27.002Z,2.42
2018-09-02T09:08:31.478Z,2.00
2018-09-02T09:13:35.370Z,1.60
2018-09-02T09:18:39.567Z,1.47
2018-09-02T09:23:43.636Z,1.15
2018-09-02T09:28:47.759Z,1.42
2018-09-02T09:33:51.857Z,1.70
2018-09-02T09:38:56.894Z,1.05
2018-09-02T09:44:00.975Z,1.02
2018-09-02T09:49:05.931Z,0.70
2018-09-02T09:54:11.059Z,0.75
2018-09-02T09:59:15.156Z,1.20
2018-09-02T10:04:19.275Z,1.62
2018-09-02T10:09:25.256Z,1.02
2018-09-02T10:14:29.457Z,1.20
2018-09-02T10:19:33.551Z,1.67
2018-09-02T10:24:37.678Z,1.12
2018-09-02T10:29:41.935Z,2.50
2018-09-02T10:34:46.050Z,1.40
2018-09-02T10:39:50.140Z,1.30
2018-09-02T10:44:54.211Z,1.50
2018-09-02T10:49:58.297Z,1.55
2018-09-02T10:55:02.427Z,1.72
2018-09-02T11:00:09.030Z,1.92
2018-09-02T11:05:13.173Z,1.35
2018-09-02T11:10:17.377Z,1.95
2018-09-02T11:15:21.569Z,1.70
2018-09-02T11:20:25.762Z,1.30
2018-09-02T11:25:29.814Z,1.25
2018-09-02T11:30:34.660Z,1.30
2018-09-02T11:35:38.880Z,1.15
2018-09-02T11:40:43.569Z,0.90
2018-09-02T11:45:47.593Z,1.00
2018-09-02T11:50:51.702Z,0.93
2018-09-02T11:55:55.761Z,1.07
2018-09-02T12:00:59.909Z,1.35
2018-09-02T12:06:04.121Z,1.27
2018-09-02T12:11:08.855Z,1.05
2018-09-02T12:16:12.925Z,1.37
2018-09-02T12:21:17.028Z,1.10
2018-09-02T12:26:21.099Z,1.50
2018-09-02T12:31:25.307Z,1.50
2018-09-02T12:36:30.104Z,1.67
2018-09-02T12:41:34.889Z,1.25
2018-09-02T12:46:38.980Z,1.52
2018-09-02T12:51:43.157Z,1.55
2018-09-02T12:56:47.402Z,1.77
2018-09-02T13:01:51.594Z,1.45
2018-09-02T13:06:56.757Z,1.80
2018-09-02T13:12:00.958Z,8.10
2018-09-02T13:17:05.321Z,1.47
2018-09-02T13:22:10.111Z,1.90
2018-09-02T13:27:14.251Z,2.22
2018-09-02T13:32:18.342Z,1.80
2018-09-02T13:37:22.460Z,2.10
2018-09-02T13:42:26.708Z,2.10
2018-09-02T13:47:30.931Z,2.40
2018-09-02T13:52:35.381Z,2.33
2018-09-02T13:57:39.531Z,2.40
2018-09-02T14:02:43.936Z,2.22
2018-09-02T14:07:48.069Z,2.60
2018-09-02T14:12:52.717Z,2.20
2018-09-02T14:17:56.847Z,2.55
2018-09-02T14:23:01.695Z,2.35
2018-09-02T14:28:05.759Z,2.30
2018-09-02T14:33:09.910Z,2.58
2018-09-02T14:38:14.241Z,3.12
2018-09-02T14:43:18.322Z,2.65
2018-09-02T14:48:22.450Z,2.80
2018-09-02T14:53:26.613Z,3.02
2018-09-02T14:58:30.850Z,3.17
2018-09-02T15:03:35.534Z,3.30
2018-09-02T15:08:40.325Z,4.42
2018-09-02T15:13:44.559Z,3.67
2018-09-02T15:18:48.723Z,4.33
2018-09-02T15:23:52.918Z,4.30
2018-09-02T15:28:57.053Z,4.30
2018-09-02T15:34:01.150Z,4.25
2018-09-02T15:39:07.346Z,4.00
2018-09-02T15:44:11.983Z,5.47
2018-09-02T15:49:16.020Z,4.72
2018-09-02T15:54:20.144Z,5.40
2018-09-02T15:59:24.615Z,5.83
2018-09-02T16:04:29.421Z,6.03
2018-09-02T16:09:34.252Z,6.40
2018-09-02T16:14:38.361Z,5.55
2018-09-02T16:19:42.485Z,6.92
2018-09-02T16:24:46.602Z,5.92
2018-09-02T16:29:50.866Z,6.10
2018-09-02T16:34:54.988Z,7.22
2018-09-02T16:39:59.037Z,7.10
2018-09-02T16:45:03.349Z,6.83
2018-09-02T16:50:07.569Z,7.05
2018-09-02T16:55:11.700Z,6.97
2018-09-02T17:00:15.815Z,7.83
2018-09-02T17:05:23.331Z,7.03
2018-09-02T17:10:27.447Z,6.28
2018-09-02T17:15:32.197Z,6.28
2018-09-02T17:20:39.951Z,6.47
2018-09-02T17:25:44.992Z,6.50
2018-09-02T17:30:49.052Z,6.97
2018-09-02T17:35:53.177Z,6.58
2018-09-02T17:40:57.217Z,5.90
2018-09-02T17:46:02.068Z,6.22
2018-09-02T17:51:06.484Z,5.85
2018-09-02T17:56:10.698Z,6.15
2018-09-02T18:01:14.909Z,6.20
2018-09-02T18:06:19.037Z,6.00
2018-09-02T18:11:23.149Z,5.87
2018-09-02T18:16:28.909Z,5.78
2018-09-02T18:21:33.666Z,6.05
2018-09-02T18:26:37.827Z,6.10
2018-09-02T18:31:42.002Z,6.47
2018-09-02T18:36:46.097Z,6.00
2018-09-02T18:41:50.221Z,6.12
2018-09-02T18:46:54.461Z,5.95
2018-09-02T18:51:58.632Z,6.47
2018-09-02T18:57:02.932Z,6.47
2018-09-02T19:02:08.362Z,6.03
2018-09-02T19:07:12.503Z,5.45
2018-09-02T19:12:16.698Z,6.37
2018-09-02T19:17:21.042Z,6.42
2018-09-02T19:22:25.256Z,6.50
2018-09-02T19:27:29.423Z,6.15
2018-09-02T19:32:33.535Z,5.72
2018-09-02T19:37:37.661Z,6.47
2018-09-02T19:42:41.749Z,5.67
2018-09-02T19:47:45.874Z,6.28
2018-09-02T19:52:50.022Z,5.60
2018-09-02T19:57:54.246Z,5.75
2018-09-02T20:02:59.025Z,6.08
2018-09-02T20:08:04.503Z,5.90
2018-09-02T20:13:08.760Z,6.90
2018-09-02T20:18:13.054Z,6.53
2018-09-02T20:23:18.044Z,5.60
2018-09-02T20:28:23.027Z,6.95
2018-09-02T20:33:27.267Z,6.72
2018-09-02T20:38:32.008Z,5.42
2018-09-02T20:43:36.208Z,5.58
2018-09-02T20:48:40.390Z,6.47
2018-09-02T20:53:45.017Z,6.08
2018-09-02T20:58:49.299Z,5.90
2018-09-02T21:03:53.468Z,5.78
2018-09-02T21:08:57.812Z,5.83
2018-09-02T21:14:01.938Z,5.20
2018-09-02T21:19:06.597Z,5.33
2018-09-02T21:24:10.778Z,5.95
2018-09-02T21:29:14.936Z,6.22
2018-09-02T21:34:19.119Z,6.17
2018-09-02T21:39:23.313Z,5.83
2018-09-02T21:44:27.441Z,5.97
2018-09-02T21:49:31.527Z,6.55
2018-09-02T21:54:36.464Z,5.25
2018-09-02T21:59:40.669Z,5.72
2018-09-02T22:04:44.924Z,6.75
2018-09-02T22:09:49.059Z,6.90
2018-09-02T22:14:53.792Z,6.33
2018-09-02T22:19:57.924Z,6.30
2018-09-02T22:25:02.407Z,6.35
2018-09-02T22:30:07.885Z,6.85
2018-09-02T22:35:12.758Z,6.12
2018-09-02T22:40:16.840Z,6.67
2018-09-02T22:45:20.963Z,7.28
2018-09-02T22:50:25.671Z,6.97
2018-09-02T22:55:29.882Z,7.95
2018-09-02T23:00:34.104Z,7.72
2018-09-02T23:05:38.222Z,7.72
2018-09-02T23:10:42.978Z,7.45
2018-09-02T23:15:48.232Z,7.30
2018-09-02T23:20:52.563Z,7.40
2018-09-02T23:25:56.897Z,7.47
2018-09-02T23:31:01.096Z,7.28
2018-09-02T23:36:05.923Z,7.17
2018-09-02T23:41:10.358Z,6.70
2018-09-02T23:46:15.220Z,5.58
2018-09-02T23:51:19.374Z,6.53
2018-09-02T23:56:23.560Z,5.85
